Time;durP1;ratioP1;P1;durP2;ratioP2;P2;SDS_P1;SDS_P2;PMS_P1;PMS_P2;Temp;Humidity;BMP_temperature;BMP_pressure;BME280_temperature;BME280_humidity;BME280_pressure;Samples;Min_cycle;Max_cycle;Signal;HPM_P1;HPM_P2
2022/06/19 00:00:58;;;;;;;9.55;2.85;;;22.30;55.70;;;;;;5015270;28;20183;-68
2022/06/19 00:03:32;;;;;;;7.85;3.10;;;22.30;56.00;;;;;;5014182;28;20474;-69
2022/06/19 00:05:59;;;;;;;12.30;2.97;;;22.20;56.40;;;;;;5014579;28;20144;-68
2022/06/19 00:08:26;;;;;;;12.07;3.20;;;22.20;56.30;;;;;;5016140;28;20034;-68
2022/06/19 00:10:52;;;;;;;12.20;3.15;;;22.10;56.50;;;;;;5014342;28;20505;-68
2022/06/19 00:13:18;;;;;;;9.05;2.63;;;22.00;56.50;;;;;;5017234;28;20053;-69
2022/06/19 00:15:44;;;;;;;8.77;2.70;;;22.00;56.80;;;;;;5012976;28;20531;-69
2022/06/19 00:18:10;;;;;;;7.88;2.55;;;21.90;57.00;;;;;;5014354;28;20045;-69
2022/06/19 00:20:35;;;;;;;9.35;3.08;;;21.80;57.20;;;;;;5015992;28;20029;-69
2022/06/19 00:23:01;;;;;;;9.90;2.95;;;21.80;57.60;;;;;;5015141;28;20408;-69
2022/06/19 00:25:27;;;;;;;10.45;3.10;;;21.60;57.60;;;;;;5014427;28;20038;-69
2022/06/19 00:27:53;;;;;;;9.68;2.70;;;21.60;57.70;;;;;;5015443;28;20033;-69
2022/06/19 00:30:19;;;;;;;10.82;2.70;;;21.50;57.70;;;;;;5016208;28;20401;-69
2022/06/19 00:32:44;;;;;;;8.48;2.75;;;21.50;58.00;;;;;;5011148;28;20034;-69
2022/06/19 00:35:10;;;;;;;7.53;2.70;;;21.50;58.00;;;;;;5016493;28;20220;-69
2022/06/19 00:37:36;;;;;;;7.30;2.92;;;21.40;58.10;;;;;;5015230;28;20141;-69
2022/06/19 00:40:04;;;;;;;9.70;2.70;;;21.40;58.20;;;;;;5014378;28;20421;-69
2022/06/19 00:42:30;;;;;;;7.15;2.72;;;21.40;58.40;;;;;;5012581;28;20399;-69
2022/06/19 00:44:56;;;;;;;7.93;2.58;;;21.40;58.30;;;;;;5015065;28;20033;-68
2022/06/19 00:47:29;;;;;;;8.25;2.85;;;21.40;58.40;;;;;;5015311;28;20033;-69
2022/06/19 00:49:58;;;;;;;7.80;2.72;;;21.40;58.90;;;;;;5014829;28;20041;-69
2022/06/19 00:52:28;;;;;;;6.90;2.60;;;21.30;59.00;;;;;;5017390;28;20570;-69
2022/06/19 00:54:58;;;;;;;6.60;2.65;;;21.30;58.80;;;;;;5012022;28;20057;-69
2022/06/19 00:57:27;;;;;;;8.98;2.97;;;21.30;58.90;;;;;;5015028;28;20139;-68
2022/06/19 01:00:01;;;;;;;7.00;2.75;;;21.30;59.00;;;;;;5014956;28;20056;-68
2022/06/19 01:02:27;;;;;;;8.18;2.85;;;21.30;59.00;;;;;;5018410;28;20045;-69
2022/06/19 01:04:55;;;;;;;12.73;3.10;;;21.40;58.80;;;;;;5011532;28;20029;-69
2022/06/19 01:07:22;;;;;;;8.00;3.08;;;21.40;59.00;;;;;;5015362;28;20112;-69
2022/06/19 01:09:51;;;;;;;12.73;3.05;;;21.40;59.00;;;;;;5014157;28;20422;-69
2022/06/19 01:12:19;;;;;;;8.57;2.75;;;21.40;58.80;;;;;;5010722;28;20037;-69
2022/06/19 01:14:46;;;;;;;9.88;3.35;;;21.40;58.80;;;;;;5014143;28;20037;-69
2022/06/19 01:17:15;;;;;;;9.40;3.13;;;21.40;58.90;;;;;;5014819;28;20025;-69
2022/06/19 01:19:43;;;;;;;9.95;3.35;;;21.40;59.00;;;;;;5012929;28;20045;-69
2022/06/19 01:22:28;;;;;;;7.03;2.67;;;21.40;58.90;;;;;;5013948;28;20036;-69
2022/06/19 01:25:11;;;;;;;12.32;2.92;;;21.40;59.60;;;;;;5014006;28;20033;-69
2022/06/19 01:30:28;;;;;;;7.60;2.45;;;21.20;59.10;;;;;;5015440;28;20053;-69
2022/06/19 01:32:57;;;;;;;14.80;2.78;;;21.20;58.90;;;;;;5017765;28;20036;-69
2022/06/19 01:35:26;;;;;;;6.93;2.50;;;21.10;59.10;;;;;;5014436;28;20030;-69
2022/06/19 01:37:52;;;;;;;8.23;2.72;;;21.10;59.20;;;;;;5016788;28;20033;-69
2022/06/19 01:40:21;;;;;;;6.65;2.72;;;21.00;59.60;;;;;;5014364;28;20060;-69
2022/06/19 01:42:48;;;;;;;8.38;2.65;;;20.90;60.00;;;;;;5015704;28;20044;-69
2022/06/19 01:45:15;;;;;;;7.82;2.58;;;20.80;60.10;;;;;;5013974;28;20110;-68
2022/06/19 01:47:41;;;;;;;7.63;2.90;;;20.70;60.30;;;;;;5016532;28;20500;-68
2022/06/19 01:50:19;;;;;;;8.73;2.75;;;20.70;60.60;;;;;;5015200;28;20033;-69
2022/06/19 01:52:47;;;;;;;7.70;2.85;;;20.60;61.30;;;;;;5014765;28;20696;-69
2022/06/19 01:55:18;;;;;;;9.63;3.25;;;20.50;61.20;;;;;;5012432;28;20570;-68
2022/06/19 01:57:50;;;;;;;9.25;3.10;;;20.50;61.80;;;;;;5014353;28;20064;-69
2022/06/19 02:00:26;;;;;;;9.82;2.78;;;20.40;62.10;;;;;;5015058;28;20556;-69
2022/06/19 02:03:07;;;;;;;8.07;2.95;;;20.40;62.00;;;;;;5014393;28;20037;-68
2022/06/19 02:05:35;;;;;;;6.68;2.40;;;20.30;62.10;;;;;;5015704;28;20058;-69
2022/06/19 02:08:02;;;;;;;9.90;3.33;;;20.30;61.70;;;;;;5015974;28;20060;-69
2022/06/19 02:10:28;;;;;;;9.98;3.10;;;20.30;61.90;;;;;;5013850;28;20033;-69
2022/06/19 02:12:54;;;;;;;12.05;3.40;;;20.30;62.00;;;;;;5015671;28;20038;-68
2022/06/19 02:15:20;;;;;;;11.35;3.10;;;20.30;62.00;;;;;;5017930;28;20030;-69
2022/06/19 02:17:51;;;;;;;7.95;2.72;;;20.20;61.90;;;;;;5018074;28;20246;-69
2022/06/19 02:20:18;;;;;;;5.40;2.58;;;20.20;62.30;;;;;;5015710;28;20095;-68
2022/06/19 02:22:44;;;;;;;9.57;3.13;;;20.20;61.90;;;;;;5014674;28;20045;-69
2022/06/19 02:25:10;;;;;;;7.70;3.15;;;20.20;62.00;;;;;;5013446;28;20428;-65
2022/06/19 02:27:37;;;;;;;7.15;3.00;;;20.20;62.20;;;;;;5012328;28;20508;-67
2022/06/19 02:30:05;;;;;;;12.10;3.15;;;20.20;63.10;;;;;;5015535;28;20033;-68
2022/06/19 02:32:42;;;;;;;11.90;3.13;;;20.20;62.90;;;;;;5015184;28;20113;-67
2022/06/19 02:35:14;;;;;;;8.35;2.75;;;20.10;63.10;;;;;;5011194;28;20476;-69
2022/06/19 02:37:45;;;;;;;9.90;3.03;;;20.10;62.90;;;;;;5013209;28;20026;-69
2022/06/19 02:40:28;;;;;;;9.68;3.22;;;20.10;62.80;;;;;;5012055;28;20080;-69
2022/06/19 02:42:53;;;;;;;6.03;2.60;;;20.00;63.70;;;;;;5011500;28;20033;-70
2022/06/19 02:45:23;;;;;;;11.95;3.15;;;19.90;62.80;;;;;;5012400;28;20038;-69
2022/06/19 02:47:51;;;;;;;6.22;2.65;;;19.90;63.40;;;;;;5013303;28;20041;-68
2022/06/19 02:50:27;;;;;;;5.93;2.90;;;19.90;63.40;;;;;;5011460;28;20037;-69
2022/06/19 02:52:53;;;;;;;9.65;2.58;;;19.90;64.10;;;;;;5010892;28;20404;-69
2022/06/19 02:55:20;;;;;;;5.35;2.78;;;19.80;63.40;;;;;;5012002;28;21444;-69
2022/06/19 02:57:46;;;;;;;9.00;2.88;;;19.80;63.80;;;;;;5011811;28;20065;-69
2022/06/19 03:00:19;;;;;;;11.40;3.10;;;19.80;63.70;;;;;;5011889;28;20053;-69
2022/06/19 03:02:45;;;;;;;8.05;2.72;;;19.70;64.30;;;;;;5013370;28;20048;-69
2022/06/19 03:05:18;;;;;;;10.95;3.03;;;19.70;63.90;;;;;;5012002;28;20455;-69
2022/06/19 03:07:44;;;;;;;11.20;3.03;;;19.70;64.60;;;;;;5012418;28;20125;-68
2022/06/19 03:10:10;;;;;;;10.85;2.92;;;19.60;64.10;;;;;;5015376;28;20120;-68
2022/06/19 03:12:36;;;;;;;9.32;3.50;;;19.60;64.10;;;;;;5011490;28;20761;-69
2022/06/19 03:15:01;;;;;;;7.70;3.05;;;19.60;64.10;;;;;;5012426;28;20174;-69
2022/06/19 03:17:27;;;;;;;10.98;3.20;;;19.60;64.10;;;;;;5011781;28;20587;-69
2022/06/19 03:19:53;;;;;;;7.25;2.72;;;19.60;64.30;;;;;;5012227;28;20084;-68
2022/06/19 03:22:18;;;;;;;10.43;2.95;;;19.60;65.30;;;;;;5012404;28;20367;-68
2022/06/19 03:24:44;;;;;;;8.18;3.22;;;19.60;64.60;;;;;;5014475;28;20041;-69
2022/06/19 03:27:12;;;;;;;9.18;2.90;;;19.60;64.50;;;;;;5012473;28;20044;-69
2022/06/19 03:29:37;;;;;;;10.85;3.20;;;19.60;64.80;;;;;;5011461;28;20034;-69
2022/06/19 03:32:04;;;;;;;7.00;2.90;;;19.60;64.80;;;;;;5011831;28;20029;-69
2022/06/19 03:34:30;;;;;;;7.80;2.90;;;19.60;64.90;;;;;;5016807;28;20053;-69
2022/06/19 03:36:56;;;;;;;7.78;3.10;;;19.70;65.30;;;;;;5016916;28;20041;-69
2022/06/19 03:39:22;;;;;;;10.63;3.00;;;19.70;65.30;;;;;;5015482;28;20038;-69
2022/06/19 03:41:47;;;;;;;6.97;3.00;;;19.70;65.20;;;;;;5014996;28;20034;-68
2022/06/19 03:44:13;;;;;;;7.97;2.85;;;19.70;65.20;;;;;;5015485;28;20057;-69
2022/06/19 03:46:39;;;;;;;11.45;3.78;;;19.70;65.20;;;;;;5013014;28;20040;-69
2022/06/19 03:49:04;;;;;;;6.45;3.28;;;19.70;65.40;;;;;;5015489;28;20043;-69
2022/06/19 03:51:30;;;;;;;11.40;3.90;;;19.70;66.20;;;;;;5016658;28;20044;-69
2022/06/19 03:53:56;;;;;;;7.32;3.10;;;19.70;65.50;;;;;;5014008;28;20124;-69
2022/06/19 03:56:30;;;;;;;14.30;3.30;;;19.70;65.40;;;;;;5015646;28;20044;-69
2022/06/19 03:58:57;;;;;;;9.60;3.47;;;19.70;66.00;;;;;;5015665;28;20045;-67
2022/06/19 04:01:37;;;;;;;10.35;3.20;;;19.70;65.50;;;;;;5018177;28;20030;-68
2022/06/19 04:04:04;;;;;;;7.30;2.97;;;19.70;66.90;;;;;;5016656;28;20057;-69
2022/06/19 04:06:32;;;;;;;11.13;3.13;;;19.70;65.80;;;;;;5015211;28;20443;-69
2022/06/19 04:08:58;;;;;;;5.30;3.10;;;19.70;66.00;;;;;;5014881;28;20044;-68
2022/06/19 04:11:26;;;;;;;6.30;2.90;;;19.70;66.00;;;;;;5016824;28;20046;-69
2022/06/19 04:13:54;;;;;;;9.15;2.90;;;19.70;65.90;;;;;;5015782;28;20042;-69
2022/06/19 04:16:28;;;;;;;10.52;2.90;;;19.80;65.90;;;;;;5013046;28;20030;-69
2022/06/19 04:18:56;;;;;;;8.30;3.22;;;19.80;66.40;;;;;;5015922;28;20026;-69
2022/06/19 04:21:25;;;;;;;9.73;3.20;;;19.80;66.00;;;;;;5015755;28;20827;-69
2022/06/19 04:23:56;;;;;;;9.88;3.10;;;19.90;66.00;;;;;;5015238;28;20041;-69
2022/06/19 04:26:24;;;;;;;7.40;3.42;;;19.90;66.10;;;;;;5013898;28;20037;-69
2022/06/19 04:28:50;;;;;;;13.15;3.97;;;20.00;65.90;;;;;;5017093;28;20523;-68
2022/06/19 04:31:16;;;;;;;9.35;3.70;;;20.10;65.70;;;;;;5013732;28;20041;-69
2022/06/19 04:33:43;;;;;;;9.25;3.50;;;20.10;65.60;;;;;;5015687;28;20057;-69
2022/06/19 04:36:13;;;;;;;8.57;3.78;;;20.20;65.80;;;;;;5014609;28;20092;-69
2022/06/19 04:38:40;;;;;;;5.93;3.35;;;20.20;65.70;;;;;;5015745;28;20338;-69
2022/06/19 04:41:31;;;;;;;12.38;3.25;;;20.20;65.70;;;;;;5012374;28;20038;-69
2022/06/19 04:43:58;;;;;;;11.32;2.97;;;20.30;66.50;;;;;;5015361;28;20056;-69
2022/06/19 04:46:25;;;;;;;8.40;3.35;;;20.20;65.90;;;;;;5011945;28;20037;-69
2022/06/19 04:48:50;;;;;;;8.90;3.42;;;20.30;66.10;;;;;;5014547;28;20103;-69
2022/06/19 04:51:16;;;;;;;8.35;3.22;;;20.40;66.20;;;;;;5017278;28;20045;-69
2022/06/19 04:53:42;;;;;;;9.40;3.30;;;20.40;66.10;;;;;;5012057;28;20532;-69
2022/06/19 04:56:10;;;;;;;8.70;3.47;;;20.40;66.00;;;;;;5014098;28;20041;-67
2022/06/19 04:58:36;;;;;;;7.53;3.10;;;20.50;66.30;;;;;;5017802;28;20050;-68
2022/06/19 05:01:06;;;;;;;9.73;3.08;;;20.50;66.60;;;;;;5012606;28;20038;-68
2022/06/19 05:03:32;;;;;;;6.28;3.38;;;20.50;66.60;;;;;;5012912;28;20044;-69
2022/06/19 05:05:57;;;;;;;10.00;3.40;;;20.60;66.70;;;;;;5013499;28;20030;-68
2022/06/19 05:08:23;;;;;;;9.38;3.53;;;20.60;66.80;;;;;;5013636;28;20452;-69
2022/06/19 05:10:49;;;;;;;10.45;3.80;;;20.70;67.00;;;;;;5014614;28;20042;-69
2022/06/19 05:13:20;;;;;;;11.88;3.65;;;20.80;66.90;;;;;;5013605;28;20467;-69
2022/06/19 05:15:47;;;;;;;6.60;3.60;;;20.80;67.60;;;;;;5014754;28;20059;-70
2022/06/19 05:18:13;;;;;;;10.88;3.67;;;20.90;67.20;;;;;;5013933;28;20026;-69
2022/06/19 05:20:40;;;;;;;8.30;3.53;;;21.00;67.20;;;;;;5016560;28;20076;-69
2022/06/19 05:23:07;;;;;;;6.85;3.60;;;21.10;66.70;;;;;;5014756;28;20025;-69
2022/06/19 05:25:33;;;;;;;11.07;3.78;;;21.20;66.00;;;;;;5013151;28;20022;-70
2022/06/19 05:27:59;;;;;;;10.93;3.63;;;21.20;65.90;;;;;;5015160;28;20034;-69
2022/06/19 05:30:25;;;;;;;10.65;3.65;;;21.30;65.90;;;;;;5016518;28;20033;-69
2022/06/19 05:32:50;;;;;;;13.32;3.80;;;21.40;66.00;;;;;;5015292;28;20087;-69
2022/06/19 05:35:16;;;;;;;12.20;4.50;;;21.50;66.70;;;;;;5012966;28;20046;-69
2022/06/19 05:37:42;;;;;;;11.20;4.30;;;21.60;67.20;;;;;;5013748;28;20492;-69
2022/06/19 05:40:10;;;;;;;11.75;4.15;;;21.70;67.60;;;;;;5013935;28;20124;-69
2022/06/19 05:42:36;;;;;;;9.57;3.47;;;21.80;67.60;;;;;;5012395;28;20033;-69
2022/06/19 05:45:03;;;;;;;9.73;3.95;;;22.00;67.40;;;;;;5015227;28;20038;-70
2022/06/19 05:47:28;;;;;;;12.13;3.90;;;22.10;67.40;;;;;;5012638;28;20038;-69
2022/06/19 05:49:56;;;;;;;11.20;3.95;;;22.20;67.10;;;;;;5013889;28;20034;-67
2022/06/19 05:52:24;;;;;;;13.27;4.20;;;22.30;67.10;;;;;;5013328;28;20428;-68
2022/06/19 05:54:51;;;;;;;11.32;3.70;;;22.50;67.20;;;;;;5012431;28;20796;-67
2022/06/19 05:57:17;;;;;;;10.48;3.42;;;22.60;66.40;;;;;;5012770;28;20406;-69
2022/06/19 05:59:43;;;;;;;6.70;3.40;;;22.70;66.40;;;;;;5015239;28;20036;-69
2022/06/19 06:02:13;;;;;;;10.80;3.03;;;22.90;66.20;;;;;;5012578;28;20620;-68
2022/06/19 06:04:38;;;;;;;13.02;3.15;;;23.00;65.90;;;;;;5013605;28;20071;-69
2022/06/19 06:07:07;;;;;;;12.00;3.30;;;23.20;65.10;;;;;;5017230;28;20076;-68
2022/06/19 06:09:34;;;;;;;13.10;3.20;;;23.40;64.80;;;;;;5011012;28;20699;-69
2022/06/19 06:11:59;;;;;;;9.32;3.15;;;23.50;64.30;;;;;;5015697;28;20033;-70
2022/06/19 06:14:25;;;;;;;8.88;3.50;;;23.60;64.30;;;;;;5012203;28;20072;-70
2022/06/19 06:16:50;;;;;;;10.88;3.58;;;23.80;63.60;;;;;;5011940;28;20486;-68
2022/06/19 06:19:16;;;;;;;10.45;2.88;;;23.90;63.30;;;;;;5014693;28;20084;-68
2022/06/19 06:21:42;;;;;;;13.05;2.75;;;24.10;62.70;;;;;;5013964;28;20452;-69
2022/06/19 06:24:08;;;;;;;10.13;2.90;;;24.20;62.20;;;;;;5014221;28;20063;-68
2022/06/19 06:26:34;;;;;;;10.52;2.92;;;24.30;61.50;;;;;;5012191;28;20116;-69
2022/06/19 06:29:00;;;;;;;7.50;3.20;;;24.40;61.10;;;;;;5013240;28;20080;-68
2022/06/19 06:31:26;;;;;;;11.00;3.00;;;24.50;61.00;;;;;;5015227;28;21238;-69
2022/06/19 06:33:52;;;;;;;11.88;2.92;;;24.60;61.30;;;;;;5013156;28;20338;-68
2022/06/19 06:36:18;;;;;;;8.27;2.90;;;24.70;61.20;;;;;;5016311;28;20033;-69
2022/06/19 06:38:44;;;;;;;10.52;3.10;;;24.80;61.00;;;;;;5011583;28;21117;-70
2022/06/19 06:41:13;;;;;;;13.20;3.33;;;25.00;60.50;;;;;;5018505;28;20080;-69
2022/06/19 06:43:41;;;;;;;10.65;2.95;;;25.10;60.10;;;;;;5013872;28;20038;-69
2022/06/19 06:46:12;;;;;;;9.40;3.30;;;25.20;59.90;;;;;;5002604;28;20172;-71
2022/06/19 06:48:38;;;;;;;10.38;2.97;;;25.30;59.70;;;;;;5009072;28;20051;-69
2022/06/19 06:51:09;;;;;;;9.60;3.15;;;25.40;59.50;;;;;;5014288;28;20040;-70
2022/06/19 06:53:35;;;;;;;9.52;3.08;;;25.50;59.40;;;;;;5014144;28;20050;-69
2022/06/19 06:56:01;;;;;;;11.10;3.08;;;25.70;59.00;;;;;;5011248;28;20038;-69
2022/06/19 06:58:27;;;;;;;11.63;3.38;;;25.80;58.80;;;;;;5012574;28;20038;-69
2022/06/19 07:00:54;;;;;;;9.88;3.08;;;25.90;58.50;;;;;;5014773;28;20400;-69
2022/06/19 07:03:20;;;;;;;9.98;3.30;;;26.00;58.50;;;;;;5010757;28;20034;-69
2022/06/19 07:05:45;;;;;;;11.32;3.05;;;26.20;58.40;;;;;;5014743;28;20574;-69
2022/06/19 07:08:11;;;;;;;12.48;3.08;;;26.30;57.80;;;;;;5018704;28;20167;-69
2022/06/19 07:10:36;;;;;;;11.35;3.05;;;26.40;57.70;;;;;;5017492;28;20029;-70
2022/06/19 07:13:02;;;;;;;11.80;3.08;;;26.50;57.10;;;;;;5018202;28;20607;-69
2022/06/19 07:15:28;;;;;;;11.27;3.20;;;26.70;56.70;;;;;;5020138;28;20033;-69
2022/06/19 07:17:53;;;;;;;9.45;3.40;;;26.80;56.40;;;;;;5020434;28;20079;-69
2022/06/19 07:20:19;;;;;;;12.30;3.22;;;26.90;56.20;;;;;;5017838;28;20041;-69
2022/06/19 07:22:45;;;;;;;12.20;3.58;;;27.00;55.70;;;;;;5015338;28;20091;-69
2022/06/19 07:25:19;;;;;;;9.23;3.17;;;27.10;55.40;;;;;;5013103;28;20048;-69
2022/06/19 07:27:45;;;;;;;17.27;3.50;;;27.20;55.10;;;;;;5017776;28;20042;-69
2022/06/19 07:30:19;;;;;;;12.68;4.18;;;27.30;55.20;;;;;;5009785;28;20033;-69
2022/06/19 07:32:45;;;;;;;;;;;27.40;55.10;;;;;;5015410;28;20103;-69
2022/06/19 07:35:11;;;;;;;11.23;2.55;;;27.50;54.80;;;;;;5014362;28;19921;-69
2022/06/19 07:37:37;;;;;;;7.55;3.05;;;27.70;55.30;;;;;;5013426;28;20640;-69
2022/06/19 07:40:03;;;;;;;12.75;3.70;;;27.80;54.80;;;;;;5013579;28;20336;-68
2022/06/19 07:42:29;;;;;;;8.93;2.80;;;27.90;54.30;;;;;;5010336;28;20128;-69
2022/06/19 07:44:55;;;;;;;12.93;3.45;;;28.00;53.70;;;;;;5013107;28;20094;-69
2022/06/19 07:50:13;;;;;;;17.95;3.40;;;28.20;53.40;;;;;;5014708;28;20476;-68
2022/06/19 07:52:44;;;;;;;;;;;28.30;53.00;;;;;;5014234;28;20030;-68
2022/06/19 07:55:12;;;;;;;10.75;3.17;;;28.50;53.40;;;;;;5014168;28;19917;-71
2022/06/19 07:57:38;;;;;;;10.68;3.22;;;28.60;52.80;;;;;;5013683;28;20077;-68
2022/06/19 08:00:07;;;;;;;13.40;3.80;;;28.70;52.50;;;;;;5013775;28;20136;-69
2022/06/19 08:02:33;;;;;;;16.02;3.08;;;28.80;52.00;;;;;;5016631;28;20041;-70
2022/06/19 08:04:58;;;;;;;12.05;3.80;;;28.90;52.20;;;;;;5011117;28;20030;-70
2022/06/19 08:07:24;;;;;;;13.30;3.47;;;29.00;52.20;;;;;;5009972;28;20281;-68
2022/06/19 08:09:50;;;;;;;10.27;3.53;;;29.10;52.00;;;;;;5013822;28;20496;-69
2022/06/19 08:12:16;;;;;;;10.10;3.38;;;29.10;51.90;;;;;;5010588;28;20423;-71
2022/06/19 08:14:41;;;;;;;14.68;3.58;;;29.20;51.80;;;;;;5010211;28;20033;-69
2022/06/19 08:17:07;;;;;;;10.25;3.70;;;29.30;51.40;;;;;;5012956;28;20038;-69
2022/06/19 08:19:33;;;;;;;13.20;3.55;;;29.40;51.10;;;;;;5015225;28;20033;-69
2022/06/19 08:21:59;;;;;;;9.80;3.75;;;29.40;51.00;;;;;;5017074;28;20040;-69
2022/06/19 08:24:24;;;;;;;10.57;3.08;;;29.50;50.90;;;;;;5012342;28;20079;-68
2022/06/19 08:26:51;;;;;;;14.50;3.90;;;29.60;51.60;;;;;;5014691;28;20502;-67
2022/06/19 08:29:17;;;;;;;10.75;3.55;;;29.70;50.70;;;;;;5013409;28;21953;-69
2022/06/19 08:31:43;;;;;;;9.95;3.72;;;29.70;50.70;;;;;;5013301;28;20045;-69
2022/06/19 08:34:09;;;;;;;10.30;3.92;;;29.80;50.90;;;;;;5013878;28;20037;-69
2022/06/19 08:36:36;;;;;;;13.27;4.00;;;29.90;50.70;;;;;;5009651;28;20646;-70
2022/06/19 08:39:06;;;;;;;10.65;3.47;;;30.00;50.50;;;;;;5012988;28;20033;-70
2022/06/19 08:42:11;;;;;;;13.52;4.05;;;30.10;50.40;;;;;;5012614;28;20044;-70
2022/06/19 08:44:54;;;;;;;7.27;3.50;;;30.20;50.10;;;;;;5009212;28;20060;-69
2022/06/19 08:47:57;;;;;;;10.77;3.65;;;30.30;50.20;;;;;;5010026;28;20292;-69
2022/06/19 08:50:34;;;;;;;12.80;3.50;;;30.50;50.50;;;;;;5013285;28;20379;-69
2022/06/19 08:53:26;;;;;;;11.13;3.45;;;30.60;50.70;;;;;;5012040;28;20041;-69
2022/06/19 08:56:10;;;;;;;6.53;2.97;;;30.80;50.90;;;;;;5008091;28;20041;-69
2022/06/19 08:58:58;;;;;;;8.80;3.27;;;30.90;50.90;;;;;;5009582;28;20504;-70
2022/06/19 09:01:26;;;;;;;7.97;3.40;;;31.10;50.70;;;;;;5011002;28;20037;-69
2022/06/19 09:07:36;;;;;;;7.28;3.30;;;31.30;49.80;;;;;;4995600;28;20041;-70
2022/06/19 09:10:34;;;;;;;11.10;3.70;;;31.40;49.70;;;;;;5013722;28;20034;-70
2022/06/19 09:13:18;;;;;;;7.95;3.35;;;31.60;49.20;;;;;;5012128;28;20041;-68
2022/06/19 09:16:08;;;;;;;9.38;3.20;;;31.60;49.30;;;;;;5014513;28;20124;-70
2022/06/19 09:18:48;;;;;;;8.30;3.15;;;31.70;49.20;;;;;;5009888;28;20045;-68
2022/06/19 09:21:48;;;;;;;12.95;4.03;;;31.80;49.30;;;;;;5010236;28;20041;-69
2022/06/19 09:24:26;;;;;;;9.60;4.10;;;32.00;49.50;;;;;;5009717;28;20038;-68
2022/06/19 09:27:01;;;;;;;10.25;3.83;;;32.10;49.30;;;;;;5018209;28;20041;-69
2022/06/19 09:29:31;;;;;;;;;;;32.20;48.60;;;;;;5019451;28;20443;-68
2022/06/19 09:32:34;;;;;;;7.90;3.65;;;32.30;49.40;;;;;;5018813;28;19921;-69
2022/06/19 09:35:09;;;;;;;8.70;3.33;;;32.30;49.00;;;;;;5017045;28;20113;-70
2022/06/19 09:37:40;;;;;;;9.32;3.92;;;32.50;49.00;;;;;;5014448;28;20030;-69
2022/06/19 09:40:16;;;;;;;12.30;3.70;;;32.50;48.80;;;;;;5017585;28;20048;-69
2022/06/19 09:42:52;;;;;;;8.18;3.70;;;32.70;48.70;;;;;;5018749;28;20030;-69
2022/06/19 09:45:52;;;;;;;9.82;4.25;;;32.70;48.70;;;;;;5017099;28;20084;-68
2022/06/19 09:48:31;;;;;;;12.70;4.20;;;32.90;48.00;;;;;;5016598;28;20045;-69
2022/06/19 09:51:18;;;;;;;10.18;3.88;;;32.90;47.50;;;;;;5015661;28;20084;-70
2022/06/19 09:53:51;;;;;;;11.82;4.15;;;33.00;47.60;;;;;;5018633;28;20042;-69
2022/06/19 09:56:46;;;;;;;11.23;3.90;;;33.10;47.80;;;;;;5015954;28;20033;-69
2022/06/19 09:59:21;;;;;;;;;;;33.20;47.30;;;;;;5012816;28;20125;-69
2022/06/19 10:02:00;;;;;;;10.73;4.28;;;33.30;48.20;;;;;;5018255;28;19917;-67
2022/06/19 10:04:43;;;;;;;10.40;4.40;;;33.40;47.40;;;;;;5016755;28;20038;-69
2022/06/19 10:07:18;;;;;;;11.68;4.30;;;33.50;47.10;;;;;;5017703;28;20504;-69
2022/06/19 10:09:54;;;;;;;11.43;3.88;;;33.60;46.40;;;;;;5019226;28;20458;-68
2022/06/19 10:12:41;;;;;;;11.27;4.43;;;33.70;46.50;;;;;;5018893;28;20073;-68
2022/06/19 10:15:16;;;;;;;9.65;4.25;;;33.80;46.10;;;;;;5015802;28;20045;-70
2022/06/19 10:17:51;;;;;;;12.13;4.22;;;33.90;45.80;;;;;;5018215;28;20045;-68
2022/06/19 10:20:19;;;;;;;10.93;3.85;;;34.00;45.00;;;;;;5017797;28;20046;-70
2022/06/19 10:23:08;;;;;;;7.68;3.45;;;34.10;44.30;;;;;;5029746;28;20045;-69
2022/06/19 10:26:00;;;;;;;10.23;4.00;;;34.10;43.30;;;;;;5017773;28;20057;-68
2022/06/19 10:28:50;;;;;;;8.02;3.20;;;34.20;43.10;;;;;;5017726;28;20049;-68
2022/06/19 10:32:01;;;;;;;11.15;3.58;;;34.30;43.10;;;;;;5016630;28;20095;-69
2022/06/19 10:35:03;;;;;;;9.02;3.58;;;34.30;43.00;;;;;;5016564;28;20041;-69
2022/06/19 10:37:47;;;;;;;10.10;3.35;;;34.30;42.70;;;;;;5018547;28;20520;-69
2022/06/19 10:40:34;;;;;;;11.30;3.65;;;34.40;43.00;;;;;;5015097;28;20033;-69
2022/06/19 10:43:41;;;;;;;9.98;3.50;;;34.40;42.00;;;;;;5017570;28;20029;-69
2022/06/19 10:46:08;;;;;;;11.27;3.30;;;34.50;42.90;;;;;;5008591;28;20080;-72
2022/06/19 10:49:01;;;;;;;9.15;3.33;;;34.60;42.70;;;;;;5018660;28;20033;-70
2022/06/19 10:51:53;;;;;;;8.75;3.47;;;34.60;42.40;;;;;;5016145;28;20041;-69
2022/06/19 10:54:18;;;;;;;10.57;3.55;;;34.70;42.20;;;;;;5011801;28;20156;-69
2022/06/19 10:57:03;;;;;;;9.60;2.92;;;34.80;41.60;;;;;;5013214;28;20141;-69
2022/06/19 10:59:29;;;;;;;14.45;3.40;;;34.80;41.60;;;;;;5017710;28;20040;-70
2022/06/19 11:05:11;;;;;;;14.43;3.35;;;34.90;41.00;;;;;;5017207;28;20041;-69
2022/06/19 11:07:37;;;;;;;7.78;3.38;;;34.90;41.40;;;;;;5016991;28;20033;-69
2022/06/19 11:10:18;;;;;;;10.35;3.65;;;34.90;41.30;;;;;;5018140;28;20385;-70
2022/06/19 11:12:56;;;;;;;11.15;3.65;;;35.00;40.80;;;;;;5014035;28;20441;-70
2022/06/19 11:15:24;;;;;;;15.25;3.60;;;35.00;40.70;;;;;;5016303;28;20524;-69
2022/06/19 11:18:20;;;;;;;10.50;3.65;;;35.00;40.50;;;;;;5016919;28;20085;-69
2022/06/19 11:21:03;;;;;;;10.52;3.55;;;35.00;40.60;;;;;;5016024;28;20479;-69
2022/06/19 11:23:51;;;;;;;6.88;3.47;;;35.00;40.80;;;;;;5017558;28;20049;-69
2022/06/19 11:26:17;;;;;;;9.88;3.42;;;35.10;40.70;;;;;;5016949;28;20068;-69
2022/06/19 11:28:50;;;;;;;7.53;3.53;;;35.10;40.70;;;;;;5017867;28;20034;-69
2022/06/19 11:31:24;;;;;;;11.40;3.80;;;35.20;40.00;;;;;;5016936;28;20413;-70
2022/06/19 11:34:43;;;;;;;12.98;4.30;;;35.30;39.20;;;;;;5017011;28;20034;-69
2022/06/19 11:37:22;;;;;;;9.13;3.63;;;35.30;37.60;;;;;;5016104;28;20052;-69
2022/06/19 11:39:53;;;;;;;10.63;4.22;;;35.40;38.50;;;;;;5015981;28;20550;-69
2022/06/19 11:42:22;;;;;;;8.40;4.15;;;35.40;38.40;;;;;;5016734;28;20618;-68
2022/06/19 11:44:54;;;;;;;9.20;4.43;;;35.50;39.00;;;;;;5017796;28;20033;-68
2022/06/19 11:47:26;;;;;;;10.35;4.50;;;35.50;38.50;;;;;;5017276;28;20033;-69
2022/06/19 11:50:12;;;;;;;8.77;3.80;;;35.50;38.10;;;;;;5016956;28;20117;-71
2022/06/19 11:52:40;;;;;;;10.02;4.13;;;35.50;38.20;;;;;;5016815;28;20034;-69
2022/06/19 11:55:37;;;;;;;11.13;4.03;;;35.60;38.20;;;;;;5018623;28;20099;-70
2022/06/19 11:58:26;;;;;;;8.35;4.43;;;35.60;37.60;;;;;;5020850;28;20042;-69
2022/06/19 12:01:09;;;;;;;10.95;4.63;;;35.70;37.50;;;;;;5020219;28;20417;-69
2022/06/19 12:03:59;;;;;;;11.63;4.47;;;35.80;36.90;;;;;;5021560;28;20527;-69
2022/06/19 12:06:50;;;;;;;12.65;4.90;;;35.80;37.50;;;;;;5019448;28;20037;-69
2022/06/19 12:09:24;;;;;;;8.10;4.40;;;35.80;37.50;;;;;;5019851;28;20535;-69
2022/06/19 12:12:01;;;;;;;8.13;4.30;;;35.90;37.50;;;;;;5018214;28;20100;-69
2022/06/19 12:14:30;;;;;;;11.75;4.70;;;35.90;37.00;;;;;;5018639;28;20077;-70
2022/06/19 12:17:32;;;;;;;11.25;4.60;;;35.90;36.90;;;;;;5020726;28;20029;-70
2022/06/19 12:20:01;;;;;;;11.52;4.32;;;36.00;36.70;;;;;;5014014;28;20649;-70
2022/06/19 12:22:36;;;;;;;9.90;4.32;;;36.00;36.20;;;;;;5012331;28;20041;-69
2022/06/19 12:25:22;;;;;;;9.45;4.45;;;36.00;34.40;;;;;;5020261;28;20045;-70
2022/06/19 12:28:08;;;;;;;6.45;4.22;;;36.10;33.40;;;;;;5034163;28;20049;-69
2022/06/19 12:30:48;;;;;;;7.80;4.10;;;36.10;34.00;;;;;;5019620;28;20044;-68
2022/06/19 12:33:27;;;;;;;7.53;4.80;;;36.10;34.30;;;;;;5018547;28;20037;-70
2022/06/19 12:35:53;;;;;;;10.60;4.88;;;36.20;33.00;;;;;;5018280;28;20037;-70
2022/06/19 12:38:21;;;;;;;12.13;4.78;;;36.20;33.70;;;;;;5020530;28;20026;-69
2022/06/19 12:41:02;;;;;;;9.68;4.50;;;36.20;34.00;;;;;;5018416;28;20033;-68
2022/06/19 12:44:00;;;;;;;11.27;4.22;;;36.20;33.50;;;;;;5020418;28;20037;-70
2022/06/19 12:46:39;;;;;;;12.68;4.40;;;36.20;33.20;;;;;;5022523;28;20710;-70
2022/06/19 12:49:36;;;;;;;9.18;4.38;;;36.30;32.80;;;;;;5019493;28;20124;-71
2022/06/19 12:52:13;;;;;;;9.63;4.53;;;36.30;31.50;;;;;;5019237;28;20493;-71
2022/06/19 12:54:39;;;;;;;8.77;3.85;;;36.30;31.60;;;;;;5018957;28;20492;-69
2022/06/19 12:57:12;;;;;;;13.63;4.10;;;36.30;32.50;;;;;;5018803;28;20073;-73
2022/06/19 13:00:02;;;;;;;10.55;4.00;;;36.30;31.20;;;;;;5022797;28;20040;-70
2022/06/19 13:03:09;;;;;;;14.93;4.28;;;36.30;31.20;;;;;;5020149;28;20030;-69
2022/06/19 13:05:35;;;;;;;8.65;4.03;;;36.40;29.90;;;;;;5000557;28;20552;-71
2022/06/19 13:08:34;;;;;;;8.85;3.85;;;36.40;30.80;;;;;;5020523;28;20113;-72
2022/06/19 13:11:12;;;;;;;13.68;3.95;;;36.40;30.40;;;;;;5018895;28;20510;-71
2022/06/19 13:13:40;;;;;;;12.80;4.40;;;36.50;30.30;;;;;;5017993;28;20467;-69
2022/06/19 13:16:26;;;;;;;11.07;4.35;;;36.40;30.30;;;;;;5018109;28;20519;-71
2022/06/19 13:19:32;;;;;;;12.73;4.30;;;36.40;29.60;;;;;;5017789;28;20037;-70
2022/06/19 13:22:04;;;;;;;8.63;3.60;;;36.40;29.30;;;;;;5010241;28;20041;-70